Terminal Aerodrome Forecast
Issued by NWS

Home | Current Version | Previous Version | Text Only | Print | Product List | Glossary On
Versions: 1 2 3 4 5 6 7 8 9 10 11 12
000
FTUS46 KSTO 260538
TAFSCK
TAF
KSCK 260538Z 2606/2706 VRB05KT P6SM FEW250
      TEMPO 2614/2618 1SM BCFG BKN005
     FM262200 27008KT P6SM BKN050
     FM270200 29012KT P6SM VCSH BKN050 BKN100=

USA.gov is the U.S. government's official web portal to all federal, state and local government web resources and services.